XSN16L LEMG-EGSS
Flight info
| Callsign | XSN16L |
|---|---|
| Flight time | N/A |
| Altitude | 30000 |
| Route | BLN DCT MORAL DCT BEXID DCT VTB DCT RBO N867 BLV DCT BISKA P87 BELEN DCT DIDIG DCT MOKOR UN873 OLEBA DCT ROGPU DCT DIKRO UM185 TELTU |
| Aircraft | B462/M-SDFGIRWY/LB1 |
Departure
| Time | 2026-04-30 10:21 |
|---|---|
| Airport | Málaga-Costa del Sol Airport (LEMG) |
Arrival
| Time | N/A |
|---|---|
| Airport | London Stansted Airport (EGSS) |
| Time | Latitude | Longitude | Altitude | Speed | Heading |
|---|---|---|---|---|---|
| 2026-04-30 10:19 | 36.68436 | -4.51236 | 53 ft | 0 kts | 131° |
| 2026-04-30 10:20 | 36.68401 | -4.51185 | 61 ft | 31 kts | 130° |
| 2026-04-30 10:20 | 36.67600 | -4.50047 | 97 ft | 129 kts | 131° |
| 2026-04-30 10:20 | 36.66999 | -4.49177 | 399 ft | 138 kts | 130° |
| 2026-04-30 10:21 | 36.66345 | -4.48241 | 716 ft | 150 kts | 130° |
| 2026-04-30 10:21 | 36.65619 | -4.47222 | 967 ft | 171 kts | 132° |
| 2026-04-30 10:21 | 36.64774 | -4.46045 | 1247 ft | 193 kts | 133° |
| 2026-04-30 10:21 | 36.63825 | -4.44732 | 1559 ft | 214 kts | 133° |
| 2026-04-30 10:22 | 36.62792 | -4.43285 | 1878 ft | 233 kts | 133° |
| 2026-04-30 10:22 | 36.61673 | -4.41730 | 2187 ft | 249 kts | 134° |
| 2026-04-30 10:22 | 36.60504 | -4.40125 | 2809 ft | 249 kts | 133° |
| 2026-04-30 10:22 | 36.59616 | -4.38290 | 3519 ft | 252 kts | 105° |
| 2026-04-30 10:23 | 36.59335 | -4.36120 | 4161 ft | 255 kts | 101° |
| 2026-04-30 10:23 | 36.59035 | -4.33932 | 4825 ft | 258 kts | 102° |
| 2026-04-30 10:23 | 36.58699 | -4.31728 | 5427 ft | 261 kts | 103° |
| 2026-04-30 10:23 | 36.58358 | -4.29522 | 6014 ft | 265 kts | 97° |
| 2026-04-30 10:24 | 36.58671 | -4.27222 | 6564 ft | 273 kts | 64° |
| 2026-04-30 10:24 | 36.59887 | -4.25443 | 7114 ft | 279 kts | 34° |
| 2026-04-30 10:24 | 36.61686 | -4.24548 | 7686 ft | 283 kts | 6° |
| 2026-04-30 10:24 | 36.63656 | -4.24377 | 8335 ft | 286 kts | 5° |
| 2026-04-30 10:25 | 36.65628 | -4.23906 | 8992 ft | 291 kts | 13° |
| 2026-04-30 10:25 | 36.67598 | -4.23215 | 9642 ft | 297 kts | 16° |
| 2026-04-30 10:25 | 36.69572 | -4.22386 | 10244 ft | 301 kts | 18° |
| 2026-04-30 10:25 | 36.71558 | -4.21546 | 10895 ft | 303 kts | 17° |
| 2026-04-30 10:26 | 36.73578 | -4.20737 | 11580 ft | 305 kts | 16° |
| 2026-04-30 10:26 | 36.75606 | -4.19932 | 12279 ft | 308 kts | 16° |
| 2026-04-30 10:26 | 36.77658 | -4.19118 | 12942 ft | 311 kts | 16° |
| 2026-04-30 10:26 | 36.79731 | -4.18298 | 13579 ft | 313 kts | 17° |
| 2026-04-30 10:27 | 36.81810 | -4.17442 | 14158 ft | 316 kts | 18° |
| 2026-04-30 10:27 | 36.83905 | -4.16564 | 14688 ft | 319 kts | 17° |
| 2026-04-30 10:27 | 36.86024 | -4.15718 | 15220 ft | 321 kts | 17° |
| 2026-04-30 10:27 | 36.88164 | -4.14869 | 15717 ft | 324 kts | 17° |
| 2026-04-30 10:28 | 36.90316 | -4.13995 | 16199 ft | 326 kts | 17° |
| 2026-04-30 10:28 | 36.92483 | -4.13106 | 16676 ft | 328 kts | 17° |
| 2026-04-30 10:28 | 36.94658 | -4.12224 | 17151 ft | 330 kts | 17° |
| 2026-04-30 10:28 | 36.96858 | -4.11340 | 17585 ft | 333 kts | 17° |
| 2026-04-30 10:29 | 36.99071 | -4.10434 | 18000 ft | 335 kts | 17° |
| 2026-04-30 10:29 | 37.01293 | -4.09523 | 18395 ft | 338 kts | 17° |
| 2026-04-30 10:29 | 37.03537 | -4.08604 | 18735 ft | 340 kts | 17° |
| 2026-04-30 10:29 | 37.05760 | -4.07696 | 19080 ft | 341 kts | 17° |
| 2026-04-30 10:30 | 37.08028 | -4.06769 | 19378 ft | 344 kts | 17° |
| 2026-04-30 10:30 | 37.10308 | -4.05851 | 19683 ft | 345 kts | 17° |
| 2026-04-30 10:30 | 37.12601 | -4.04910 | 19985 ft | 347 kts | 17° |
| 2026-04-30 10:30 | 37.14901 | -4.03975 | 20293 ft | 348 kts | 17° |
| 2026-04-30 10:31 | 37.17215 | -4.03052 | 20588 ft | 350 kts | 17° |
| 2026-04-30 10:31 | 37.19535 | -4.02107 | 20886 ft | 351 kts | 17° |
| 2026-04-30 10:31 | 37.21869 | -4.01153 | 21156 ft | 352 kts | 17° |
| 2026-04-30 10:31 | 37.24211 | -4.00206 | 21425 ft | 354 kts | 17° |
| 2026-04-30 10:32 | 37.26562 | -3.99234 | 21675 ft | 356 kts | 17° |
| 2026-04-30 10:32 | 37.28924 | -3.98269 | 21908 ft | 357 kts | 17° |
| 2026-04-30 10:32 | 37.31260 | -3.97323 | 22153 ft | 359 kts | 17° |
| 2026-04-30 10:32 | 37.33640 | -3.96341 | 22391 ft | 360 kts | 17° |
| 2026-04-30 10:33 | 37.36029 | -3.95348 | 22622 ft | 362 kts | 17° |
| 2026-04-30 10:33 | 37.38429 | -3.94374 | 22870 ft | 363 kts | 17° |
| 2026-04-30 10:33 | 37.40843 | -3.93390 | 23087 ft | 365 kts | 17° |
| 2026-04-30 10:33 | 37.43258 | -3.92386 | 23333 ft | 366 kts | 17° |
| 2026-04-30 10:34 | 37.45681 | -3.91375 | 23557 ft | 368 kts | 17° |
| 2026-04-30 10:34 | 37.48115 | -3.90358 | 23760 ft | 369 kts | 17° |
| 2026-04-30 10:34 | 37.50561 | -3.89343 | 23958 ft | 370 kts | 17° |
| 2026-04-30 10:34 | 37.53016 | -3.88347 | 24149 ft | 372 kts | 17° |
| 2026-04-30 10:35 | 37.55477 | -3.87327 | 24351 ft | 373 kts | 17° |
| 2026-04-30 10:35 | 37.57948 | -3.86298 | 24544 ft | 374 kts | 17° |
| 2026-04-30 10:35 | 37.60423 | -3.85272 | 24732 ft | 375 kts | 17° |
| 2026-04-30 10:35 | 37.62908 | -3.84258 | 24925 ft | 376 kts | 17° |
| 2026-04-30 10:36 | 37.65402 | -3.83227 | 25100 ft | 378 kts | 17° |
| 2026-04-30 10:36 | 37.67895 | -3.82189 | 25303 ft | 378 kts | 17° |
| 2026-04-30 10:36 | 37.70398 | -3.81156 | 25459 ft | 379 kts | 17° |
| 2026-04-30 10:36 | 37.72918 | -3.80133 | 25625 ft | 381 kts | 17° |
| 2026-04-30 10:37 | 37.75437 | -3.79091 | 25809 ft | 382 kts | 17° |
| 2026-04-30 10:37 | 37.77964 | -3.78031 | 25976 ft | 383 kts | 17° |
| 2026-04-30 10:37 | 37.80497 | -3.76968 | 26136 ft | 384 kts | 17° |
| 2026-04-30 10:37 | 37.83036 | -3.75919 | 26306 ft | 385 kts | 17° |
| 2026-04-30 10:38 | 37.85593 | -3.74870 | 26470 ft | 386 kts | 17° |
| 2026-04-30 10:38 | 37.88145 | -3.73799 | 26635 ft | 387 kts | 17° |
| 2026-04-30 10:38 | 37.90706 | -3.72720 | 26815 ft | 388 kts | 17° |
| 2026-04-30 10:38 | 37.93267 | -3.71653 | 26990 ft | 388 kts | 17° |
| 2026-04-30 10:39 | 37.95807 | -3.70608 | 27143 ft | 389 kts | 17° |
| 2026-04-30 10:39 | 37.98389 | -3.69549 | 27295 ft | 390 kts | 17° |
| 2026-04-30 10:39 | 38.00984 | -3.68488 | 27441 ft | 391 kts | 17° |
| 2026-04-30 10:39 | 38.03571 | -3.67402 | 27592 ft | 392 kts | 17° |
| 2026-04-30 10:40 | 38.06166 | -3.66304 | 27741 ft | 393 kts | 17° |
| 2026-04-30 10:40 | 38.08774 | -3.65224 | 27887 ft | 394 kts | 17° |
| 2026-04-30 10:40 | 38.11384 | -3.64127 | 28043 ft | 395 kts | 17° |
| 2026-04-30 10:40 | 38.14001 | -3.63006 | 28191 ft | 396 kts | 17° |
| 2026-04-30 10:41 | 38.16659 | -3.62139 | 28339 ft | 394 kts | 5° |
| 2026-04-30 10:41 | 38.19381 | -3.61848 | 28461 ft | 393 kts | 0° |
| 2026-04-30 10:41 | 38.22123 | -3.61684 | 28589 ft | 394 kts | 359° |
| 2026-04-30 10:41 | 38.24831 | -3.61557 | 28722 ft | 395 kts | 359° |
| 2026-04-30 10:42 | 38.27580 | -3.61358 | 28853 ft | 397 kts | 2° |
| 2026-04-30 10:42 | 38.30336 | -3.61024 | 28983 ft | 398 kts | 2° |
| 2026-04-30 10:42 | 38.33102 | -3.60722 | 29114 ft | 398 kts | 2° |
| 2026-04-30 10:42 | 38.35867 | -3.60449 | 29245 ft | 399 kts | 1° |
| 2026-04-30 10:43 | 38.38643 | -3.60182 | 29372 ft | 400 kts | 1° |
| 2026-04-30 10:43 | 38.41423 | -3.59917 | 29492 ft | 401 kts | 1° |
| 2026-04-30 10:43 | 38.44209 | -3.59654 | 29619 ft | 401 kts | 1° |
| 2026-04-30 10:43 | 38.46997 | -3.59389 | 29730 ft | 402 kts | 1° |
| 2026-04-30 10:44 | 38.49789 | -3.59125 | 29874 ft | 402 kts | 1° |
| 2026-04-30 10:44 | 38.52586 | -3.58860 | 29994 ft | 403 kts | 1° |
| 2026-04-30 10:44 | 38.58179 | -3.58331 | 30054 ft | 408 kts | 1° |
| 2026-04-30 10:45 | 38.63891 | -3.57779 | 30078 ft | 415 kts | 1° |
| 2026-04-30 10:45 | 38.69619 | -3.57188 | 30063 ft | 406 kts | 1° |
| 2026-04-30 10:46 | 38.75220 | -3.56652 | 30067 ft | 401 kts | 1° |
| 2026-04-30 10:46 | 38.80746 | -3.56105 | 30063 ft | 396 kts | 1° |
| 2026-04-30 10:47 | 38.86174 | -3.55597 | 30072 ft | 391 kts | 0° |
| 2026-04-30 10:47 | 38.91584 | -3.55075 | 30075 ft | 389 kts | 0° |
| 2026-04-30 10:48 | 38.96980 | -3.54552 | 30067 ft | 388 kts | 0° |
| 2026-04-30 10:48 | 39.02358 | -3.53985 | 30073 ft | 387 kts | 1° |
| 2026-04-30 10:49 | 39.07724 | -3.53450 | 30076 ft | 386 kts | 0° |
| 2026-04-30 10:49 | 39.13076 | -3.52891 | 30076 ft | 385 kts | 0° |
| 2026-04-30 10:50 | 39.18388 | -3.52379 | 30068 ft | 385 kts | 0° |
| 2026-04-30 10:50 | 39.22864 | -3.51916 | 30070 ft | 386 kts | 0° |
| 2026-04-30 10:51 | 39.29095 | -3.51304 | 30079 ft | 387 kts | 0° |
| 2026-04-30 10:51 | 39.33583 | -3.50840 | 30080 ft | 385 kts | 360° |
| 2026-04-30 10:52 | 39.38927 | -3.50319 | 30086 ft | 390 kts | 359° |
| 2026-04-30 10:52 | 39.44374 | -3.49803 | 30086 ft | 394 kts | 359° |
| 2026-04-30 10:53 | 39.49875 | -3.49270 | 30087 ft | 399 kts | 0° |
| 2026-04-30 10:53 | 39.55443 | -3.48665 | 30095 ft | 404 kts | 360° |
| 2026-04-30 10:54 | 39.61077 | -3.48093 | 30083 ft | 408 kts | 359° |
| 2026-04-30 10:54 | 39.66775 | -3.47534 | 30080 ft | 413 kts | 359° |
| 2026-04-30 10:55 | 39.72494 | -3.46982 | 30084 ft | 417 kts | 360° |
| 2026-04-30 10:55 | 39.78303 | -3.46390 | 30090 ft | 421 kts | 1° |
| 2026-04-30 10:56 | 39.84152 | -3.45186 | 30084 ft | 428 kts | 6° |
| 2026-04-30 10:56 | 39.90043 | -3.44019 | 30082 ft | 430 kts | 3° |
| 2026-04-30 10:57 | 39.95994 | -3.42856 | 30083 ft | 434 kts | 4° |
| 2026-04-30 10:57 | 40.01941 | -3.41629 | 30090 ft | 437 kts | 4° |
| 2026-04-30 10:58 | 40.07975 | -3.40439 | 30096 ft | 440 kts | 4° |
| 2026-04-30 10:58 | 40.14047 | -3.39222 | 30099 ft | 443 kts | 4° |
| 2026-04-30 10:59 | 40.20148 | -3.37988 | 30104 ft | 445 kts | 4° |
| 2026-04-30 10:59 | 40.26284 | -3.36772 | 30102 ft | 447 kts | 4° |
| 2026-04-30 11:00 | 40.32441 | -3.35490 | 30105 ft | 449 kts | 4° |
| 2026-04-30 11:00 | 40.38621 | -3.34253 | 30102 ft | 450 kts | 4° |
| 2026-04-30 11:01 | 40.44819 | -3.32997 | 30122 ft | 451 kts | 4° |
| 2026-04-30 11:01 | 40.51029 | -3.31715 | 30108 ft | 452 kts | 4° |
| 2026-04-30 11:02 | 40.57246 | -3.30442 | 30096 ft | 452 kts | 4° |
| 2026-04-30 11:02 | 40.63465 | -3.29170 | 30092 ft | 452 kts | 4° |
| 2026-04-30 11:03 | 40.69651 | -3.27903 | 30093 ft | 452 kts | 4° |
| 2026-04-30 11:04 | 40.78982 | -3.25993 | 30081 ft | 452 kts | 4° |
| 2026-04-30 11:04 | 40.85202 | -3.24719 | 30101 ft | 452 kts | 4° |
| 2026-04-30 11:05 | 40.91384 | -3.23376 | 30088 ft | 453 kts | 5° |
| 2026-04-30 11:05 | 40.97592 | -3.21940 | 30089 ft | 453 kts | 5° |
| 2026-04-30 11:06 | 41.03804 | -3.20554 | 30084 ft | 452 kts | 5° |
| 2026-04-30 11:06 | 41.10014 | -3.19144 | 30110 ft | 452 kts | 5° |
| 2026-04-30 11:07 | 41.16222 | -3.17763 | 30091 ft | 452 kts | 5° |
| 2026-04-30 11:07 | 41.22432 | -3.16393 | 30083 ft | 452 kts | 5° |
| 2026-04-30 11:08 | 41.28641 | -3.14975 | 30085 ft | 452 kts | 5° |
| 2026-04-30 11:08 | 41.34812 | -3.13587 | 30090 ft | 452 kts | 5° |
| 2026-04-30 11:09 | 41.41030 | -3.12193 | 30088 ft | 452 kts | 5° |
| 2026-04-30 11:09 | 41.47230 | -3.10743 | 30076 ft | 452 kts | 5° |
| 2026-04-30 11:10 | 41.53436 | -3.09329 | 30097 ft | 452 kts | 5° |
| 2026-04-30 11:10 | 41.59598 | -3.07949 | 30079 ft | 451 kts | 5° |
| 2026-04-30 11:11 | 41.65792 | -3.06568 | 30078 ft | 451 kts | 5° |
| 2026-04-30 11:11 | 41.71981 | -3.05114 | 30075 ft | 451 kts | 5° |
| 2026-04-30 11:12 | 41.78162 | -3.03667 | 30086 ft | 450 kts | 5° |
| 2026-04-30 11:12 | 41.84336 | -3.02266 | 30087 ft | 450 kts | 5° |
| 2026-04-30 11:13 | 41.90519 | -3.00870 | 30085 ft | 450 kts | 5° |
| 2026-04-30 11:13 | 41.96687 | -2.99465 | 30091 ft | 450 kts | 5° |
| 2026-04-30 11:14 | 42.02810 | -2.97998 | 30088 ft | 449 kts | 5° |
| 2026-04-30 11:14 | 42.08983 | -2.96594 | 30092 ft | 449 kts | 5° |
| 2026-04-30 11:15 | 42.15152 | -2.95129 | 30079 ft | 449 kts | 5° |
| 2026-04-30 11:15 | 42.21318 | -2.93688 | 30081 ft | 449 kts | 5° |
| 2026-04-30 11:16 | 42.27438 | -2.92226 | 30079 ft | 449 kts | 5° |
| 2026-04-30 11:16 | 42.33587 | -2.90815 | 30064 ft | 448 kts | 5° |
| 2026-04-30 11:17 | 42.39718 | -2.89373 | 30078 ft | 447 kts | 5° |
| 2026-04-30 11:17 | 42.45852 | -2.88008 | 30080 ft | 443 kts | 1° |
| 2026-04-30 11:18 | 42.51948 | -2.88239 | 30086 ft | 437 kts | 351° |
| 2026-04-30 11:18 | 42.61069 | -2.88877 | 30085 ft | 439 kts | 355° |
| 2026-04-30 11:19 | 42.67117 | -2.89210 | 30077 ft | 437 kts | 352° |
| 2026-04-30 11:19 | 42.73200 | -2.89560 | 30079 ft | 438 kts | 353° |
| 2026-04-30 11:20 | 42.79293 | -2.89851 | 30083 ft | 438 kts | 353° |
| 2026-04-30 11:20 | 42.85385 | -2.90134 | 30085 ft | 438 kts | 354° |
| 2026-04-30 11:21 | 42.91490 | -2.90438 | 30078 ft | 438 kts | 353° |
| 2026-04-30 11:21 | 42.97549 | -2.90758 | 30072 ft | 438 kts | 353° |
| 2026-04-30 11:22 | 43.03647 | -2.91086 | 30080 ft | 437 kts | 353° |
| 2026-04-30 11:22 | 43.09618 | -2.91419 | 30085 ft | 426 kts | 353° |
| 2026-04-30 11:23 | 43.15507 | -2.91754 | 30084 ft | 422 kts | 353° |
| 2026-04-30 11:24 | 43.24267 | -2.92239 | 30065 ft | 417 kts | 353° |
| 2026-04-30 11:24 | 43.30021 | -2.92496 | 30073 ft | 416 kts | 356° |
| 2026-04-30 11:25 | 43.35755 | -2.91027 | 30078 ft | 421 kts | 9° |
| 2026-04-30 11:25 | 43.38604 | -2.90085 | 30077 ft | 419 kts | 8° |
| 2026-04-30 11:26 | 43.49985 | -2.86830 | 30081 ft | 417 kts | 7° |
| 2026-04-30 11:26 | 43.55635 | -2.85158 | 30081 ft | 413 kts | 7° |
| 2026-04-30 11:27 | 43.61251 | -2.83516 | 30111 ft | 413 kts | 6° |
| 2026-04-30 11:27 | 43.66865 | -2.81845 | 30088 ft | 413 kts | 7° |
| 2026-04-30 11:28 | 43.75229 | -2.79176 | 30087 ft | 413 kts | 8° |
| 2026-04-30 11:29 | 43.80819 | -2.77351 | 30112 ft | 412 kts | 7° |
| 2026-04-30 11:29 | 43.89193 | -2.74645 | 30089 ft | 409 kts | 4° |
| 2026-04-30 11:30 | 43.97599 | -2.72775 | 30089 ft | 409 kts | 6° |
| 2026-04-30 11:31 | 44.03143 | -2.71210 | 30101 ft | 408 kts | 5° |
| 2026-04-30 11:31 | 44.08718 | -2.69798 | 30095 ft | 407 kts | 5° |
| 2026-04-30 11:32 | 44.14283 | -2.68367 | 30088 ft | 406 kts | 5° |
| 2026-04-30 11:32 | 44.19834 | -2.66918 | 30126 ft | 405 kts | 7° |
| 2026-04-30 11:33 | 44.28154 | -2.64729 | 30090 ft | 405 kts | 8° |
| 2026-04-30 11:33 | 44.33692 | -2.63234 | 30090 ft | 405 kts | 8° |
| 2026-04-30 11:34 | 44.39224 | -2.61764 | 30089 ft | 404 kts | 8° |
| 2026-04-30 11:34 | 44.44720 | -2.60370 | 30088 ft | 404 kts | 9° |
| 2026-04-30 11:35 | 44.50248 | -2.58914 | 30082 ft | 404 kts | 9° |
| 2026-04-30 11:35 | 44.55767 | -2.57440 | 30083 ft | 403 kts | 9° |
| 2026-04-30 11:36 | 44.61278 | -2.55988 | 30075 ft | 403 kts | 12° |
| 2026-04-30 11:36 | 44.66800 | -2.54564 | 30076 ft | 403 kts | 12° |
| 2026-04-30 11:37 | 44.72318 | -2.53089 | 30081 ft | 404 kts | 12° |
| 2026-04-30 11:37 | 44.77836 | -2.51601 | 30082 ft | 404 kts | 12° |
| 2026-04-30 11:38 | 44.83336 | -2.50180 | 30079 ft | 404 kts | 12° |
| 2026-04-30 11:38 | 44.88853 | -2.48609 | 30080 ft | 404 kts | 13° |
| 2026-04-30 11:39 | 44.94389 | -2.47129 | 30080 ft | 405 kts | 12° |
| 2026-04-30 11:39 | 44.99934 | -2.45688 | 30069 ft | 405 kts | 13° |
| 2026-04-30 11:40 | 45.05478 | -2.44195 | 30075 ft | 406 kts | 13° |
| 2026-04-30 11:40 | 45.11032 | -2.42674 | 30077 ft | 407 kts | 13° |
| 2026-04-30 11:41 | 45.16600 | -2.41143 | 30075 ft | 408 kts | 13° |
| 2026-04-30 11:41 | 45.21241 | -2.39903 | 30068 ft | 409 kts | 14° |
| 2026-04-30 11:42 | 45.27754 | -2.38176 | 30074 ft | 410 kts | 14° |
| 2026-04-30 11:42 | 45.33371 | -2.36631 | 30081 ft | 412 kts | 14° |
| 2026-04-30 11:43 | 45.38060 | -2.35378 | 30061 ft | 412 kts | 14° |
| 2026-04-30 11:43 | 45.43706 | -2.33848 | 30072 ft | 414 kts | 14° |
| 2026-04-30 11:44 | 45.49370 | -2.32304 | 30079 ft | 414 kts | 15° |
| 2026-04-30 11:44 | 45.55040 | -2.30718 | 30078 ft | 416 kts | 14° |
| 2026-04-30 11:45 | 45.60729 | -2.29142 | 30066 ft | 417 kts | 14° |
| 2026-04-30 11:45 | 45.66434 | -2.27542 | 30069 ft | 418 kts | 14° |
| 2026-04-30 11:46 | 45.72156 | -2.25994 | 30071 ft | 419 kts | 14° |
| 2026-04-30 11:46 | 45.77888 | -2.24428 | 30065 ft | 420 kts | 14° |
| 2026-04-30 11:47 | 45.83637 | -2.22825 | 30070 ft | 420 kts | 14° |
| 2026-04-30 11:47 | 45.89355 | -2.21257 | 30071 ft | 421 kts | 14° |
| 2026-04-30 11:48 | 45.95114 | -2.19652 | 30056 ft | 422 kts | 14° |
| 2026-04-30 11:48 | 46.00895 | -2.18040 | 30063 ft | 422 kts | 14° |
| 2026-04-30 11:49 | 46.06631 | -2.16400 | 30067 ft | 423 kts | 15° |
| 2026-04-30 11:49 | 46.12405 | -2.14759 | 30070 ft | 423 kts | 14° |
| 2026-04-30 11:50 | 46.18207 | -2.13171 | 30064 ft | 424 kts | 14° |
| 2026-04-30 11:50 | 46.23999 | -2.11575 | 30064 ft | 424 kts | 14° |
| 2026-04-30 11:51 | 46.29804 | -2.09968 | 30068 ft | 425 kts | 15° |
| 2026-04-30 11:51 | 46.35593 | -2.08273 | 30058 ft | 425 kts | 15° |
| 2026-04-30 11:52 | 46.41371 | -2.06669 | 30068 ft | 425 kts | 15° |
| 2026-04-30 11:52 | 46.47182 | -2.05031 | 30071 ft | 425 kts | 15° |
| 2026-04-30 11:53 | 46.53005 | -2.03378 | 30074 ft | 426 kts | 15° |
| 2026-04-30 11:53 | 46.58827 | -2.01711 | 30059 ft | 426 kts | 15° |
| 2026-04-30 11:54 | 46.64657 | -2.00052 | 30059 ft | 427 kts | 15° |
| 2026-04-30 11:54 | 46.70489 | -1.98409 | 30064 ft | 427 kts | 14° |
| 2026-04-30 11:55 | 46.76314 | -1.96671 | 30069 ft | 427 kts | 15° |
| 2026-04-30 11:55 | 46.82115 | -1.95010 | 30071 ft | 428 kts | 15° |
| 2026-04-30 11:56 | 46.87993 | -1.93336 | 30072 ft | 428 kts | 15° |
| 2026-04-30 11:56 | 46.93809 | -1.91681 | 30072 ft | 428 kts | 15° |
| 2026-04-30 11:57 | 46.99659 | -1.89983 | 30069 ft | 428 kts | 15° |
| 2026-04-30 11:57 | 47.05499 | -1.88218 | 30068 ft | 428 kts | 15° |
| 2026-04-30 11:58 | 47.11349 | -1.86508 | 30056 ft | 429 kts | 14° |
| 2026-04-30 11:58 | 47.17209 | -1.84833 | 30051 ft | 429 kts | 14° |
| 2026-04-30 11:59 | 47.23084 | -1.83158 | 30054 ft | 430 kts | 14° |
| 2026-04-30 11:59 | 47.28940 | -1.81426 | 30058 ft | 430 kts | 15° |
| 2026-04-30 12:00 | 47.34808 | -1.79686 | 30057 ft | 430 kts | 14° |
| 2026-04-30 12:00 | 47.40657 | -1.77993 | 30062 ft | 431 kts | 14° |
| 2026-04-30 12:01 | 47.46549 | -1.76268 | 30072 ft | 432 kts | 14° |
| 2026-04-30 12:01 | 47.52452 | -1.74543 | 30071 ft | 433 kts | 14° |
| 2026-04-30 12:02 | 47.58364 | -1.72808 | 30070 ft | 434 kts | 13° |
| 2026-04-30 12:02 | 47.64280 | -1.71035 | 30072 ft | 434 kts | 14° |
| 2026-04-30 12:03 | 47.73180 | -1.68351 | 30075 ft | 435 kts | 14° |
| 2026-04-30 12:04 | 47.79126 | -1.66550 | 30078 ft | 436 kts | 14° |
| 2026-04-30 12:04 | 47.85078 | -1.64781 | 30081 ft | 436 kts | 13° |
| 2026-04-30 12:05 | 47.90997 | -1.63009 | 30084 ft | 437 kts | 14° |
| 2026-04-30 12:05 | 47.96962 | -1.61201 | 30083 ft | 437 kts | 14° |
| 2026-04-30 12:06 | 48.02932 | -1.59396 | 30081 ft | 438 kts | 14° |
| 2026-04-30 12:06 | 48.08911 | -1.57608 | 30079 ft | 438 kts | 14° |
| 2026-04-30 12:07 | 48.14896 | -1.55801 | 30078 ft | 439 kts | 14° |
| 2026-04-30 12:07 | 48.20881 | -1.53987 | 30080 ft | 439 kts | 14° |
| 2026-04-30 12:08 | 48.26875 | -1.52138 | 30086 ft | 439 kts | 13° |
| 2026-04-30 12:08 | 48.32873 | -1.50397 | 30087 ft | 439 kts | 13° |
| 2026-04-30 12:09 | 48.38866 | -1.48587 | 30089 ft | 439 kts | 14° |
| 2026-04-30 12:09 | 48.44858 | -1.46763 | 30086 ft | 439 kts | 14° |
| 2026-04-30 12:10 | 48.50848 | -1.44914 | 30081 ft | 439 kts | 14° |
| 2026-04-30 12:10 | 48.56826 | -1.43074 | 30086 ft | 439 kts | 14° |
| 2026-04-30 12:11 | 48.62771 | -1.41239 | 30078 ft | 438 kts | 14° |
| 2026-04-30 12:11 | 48.68745 | -1.39383 | 30076 ft | 438 kts | 14° |
| 2026-04-30 12:12 | 48.74711 | -1.37514 | 30085 ft | 438 kts | 14° |
| 2026-04-30 12:12 | 48.80673 | -1.35638 | 30083 ft | 437 kts | 14° |
| 2026-04-30 12:13 | 48.86638 | -1.33760 | 30080 ft | 437 kts | 14° |
| 2026-04-30 12:13 | 48.92602 | -1.31879 | 30080 ft | 437 kts | 13° |
| 2026-04-30 12:14 | 48.98528 | -1.30077 | 30087 ft | 436 kts | 13° |
| 2026-04-30 12:14 | 49.04485 | -1.28231 | 30083 ft | 435 kts | 13° |
| 2026-04-30 12:15 | 49.10421 | -1.26365 | 30082 ft | 435 kts | 13° |
| 2026-04-30 12:15 | 49.16314 | -1.24515 | 30088 ft | 435 kts | 13° |
| 2026-04-30 12:16 | 49.22244 | -1.22656 | 30098 ft | 434 kts | 13° |